Flight Track Log - Related Links

Times and Time Zones

All times are in EDT time to prevent confusion due to time zone crossing. See the JBU551 flight status page for this flight to view local times or setup timezone preferences in your user account.

Time Position Orientation Groundspeed Altitude Reporting Facility
EDT Latitude Longitude Course Direction KTS MPH feet Rate Location/Type
Sun 03:29:45 PM 42.3667 -71.0167 160° South 162 186 600  Level KA90
Sun 03:30:57 PM 42.4000 -71.0833 304° West 198 228 2,500 2,217 Climbing KA90
Sun 03:32:03 PM 42.3833 -71.1667 255° West 270 311 5,700 2,952 Climbing KA90
Sun 03:33:00 PM 42.2428 -70.6547 160° South  Level FlightAware Approximate
Sun 03:33:03 PM 42.3000 -71.1833 188° South 315 362 8,700  Level KA90
Sun 03:34:00 PM 42.1384 -70.6025 160° South  Level FlightAware Approximate
Sun 03:34:12 PM 42.2131 -71.1139 149° Southeast 331 381 11,100  Level Boston Center
Sun 03:35:17 PM 42.1325 -71.0214 140° Southeast 376 433 13,000 2,190 Climbing Boston Center
Sun 03:36:18 PM 42.0339 -70.9308 146° Southeast 396 456 15,700 2,311 Climbing Boston Center
Sun 03:37:19 PM 41.9400 -70.8433 145° Southeast 409 471 17,700 1,835 Climbing Boston Center
Sun 03:38:19 PM 41.8486 -70.7567 145° Southeast 415 478 19,400 1,537 Climbing Boston Center
Sun 03:39:20 PM 41.7414 -70.7072 161° South 422 486 20,800 1,488 Climbing Boston Center
Sun 03:40:24 PM 41.6358 -70.7572 199° South 411 473 22,500 1,536 Climbing Boston Center
Sun 03:41:25 PM 41.5722 -70.8725 234° Southwest 390 449 24,000 1,488 Climbing Boston Center
Sun 03:42:25 PM 41.5064 -70.9897 233° Southwest 390 449 25,500 1,463 Climbing Boston Center
Sun 03:43:28 PM 41.4258 -71.1292 232° Southwest 396 456 27,000 1,210 Climbing Boston Center
Sun 03:44:29 PM 41.3664 -71.2328 233° Southwest 399 459 28,000 1,180 Climbing Boston Center
Sun 03:45:30 PM 41.2983 -71.3517 233° Southwest 401 461 29,400 1,171 Climbing Boston Center
Sun 03:46:32 PM 41.2106 -71.4736 226° Southwest 406 467 30,400 1,171 Climbing Boston Center
Sun 03:47:33 PM 41.1231 -71.5914 225° Southwest 413 475 31,800 1,306 Climbing Boston Center
Sun 03:48:36 PM 41.0439 -71.6975 225° Southwest 409 471 33,100 878 Climbing Boston Center
Sun 03:49:36 PM 40.9708 -71.7933 225° Southwest 408 470 33,600 446 Climbing Boston Center
Sun 03:50:37 PM 40.8761 -71.9203 225° Southwest 404 465 34,000 192 Climbing Boston Center
Sun 03:51:41 PM 40.8058 -72.0150 226° Southwest 398 458 34,000  Level Boston Center
Sun 03:52:41 PM 40.7331 -72.1128 226° Southwest 399 459 34,000  Level Boston Center
Sun 03:53:45 PM 40.6369 -72.2386 225° Southwest 405 466 34,000  Level Boston Center
Sun 03:54:45 PM 40.5586 -72.3417 225° Southwest 404 465 34,000 -50 Level Boston Center
Sun 03:55:46 PM 40.4808 -72.4444 225° Southwest 401 461 33,900 -49 Descending Boston Center
Sun 03:56:47 PM 40.4033 -72.5456 225° Southwest 399 459 33,900 49 Level Boston Center
Sun 03:57:48 PM 40.3267 -72.6475 225° Southwest 397 457 34,000 48 Climbing Boston Center
Sun 03:58:51 PM 40.2503 -72.7481 225° Southwest 395 455 34,000 -48 Level Boston Center
Sun 03:59:52 PM 40.1675 -72.8539 224° Southwest 384 442 33,900  Descending Boston Center
Sun 04:00:53 PM 40.0919 -72.9517 225° Southwest 383 441 34,000 48 Climbing Boston Center
Sun 04:01:57 PM 40.0175 -73.0478 225° Southwest 381 438 34,000 -48 Level Boston Center
Sun 04:02:57 PM 39.9428 -73.1442 225° Southwest 380 437 33,900  Descending Boston Center
Sun 04:03:57 PM 39.8672 -73.2406 224° Southwest 379 436 34,000 48 Climbing Boston Center
Sun 04:05:01 PM 39.7842 -73.3461 224° Southwest 379 436 34,000  Level Boston Center
Sun 04:06:02 PM 39.7044 -73.4419 223° Southwest 389 448 34,000  Level Washington Center
Sun 04:07:02 PM 39.6314 -73.5383 225° Southwest 384 442 34,000  Level Washington Center
Sun 04:08:00 PM 39.5578 -73.6319 224° Southwest 384 442 34,000  Level Washington Center
Sun 04:09:00 PM 39.4717 -73.7122 216° Southwest 384 442 34,000 -50 Level Washington Center
Sun 04:10:01 PM 39.3811 -73.7900 214° Southwest 390 449 33,900 -50 Descending Washington Center
Sun 04:11:01 PM 39.2925 -73.8672 214° Southwest 395 455 33,900  Level Washington Center
Sun 04:12:01 PM 39.2042 -73.9469 215° Southwest 395 455 33,900  Level Washington Center
Sun 04:13:00 PM 39.1094 -74.0294 214° Southwest 390 449 33,900  Level Washington Center
Sun 04:14:00 PM 39.0186 -74.1061 213° Southwest 390 449 33,900 50 Level Washington Center
Sun 04:15:01 PM 38.9300 -74.1853 215° Southwest 395 455 34,000 49 Climbing Washington Center
Sun 04:16:02 PM 38.8392 -74.2644 214° Southwest 395 455 34,000  Level Washington Center
Sun 04:17:02 PM 38.7483 -74.3433 214° Southwest 395 455 34,000 -51 Level Washington Center
Sun 04:18:00 PM 38.6594 -74.4167 213° Southwest 395 455 33,900 -50 Descending Washington Center
Sun 04:19:01 PM 38.5683 -74.4978 215° Southwest 395 455 33,900 49 Level Washington Center
Sun 04:20:02 PM 38.4772 -74.5758 214° Southwest 395 455 34,000  Climbing Washington Center
Sun 04:21:00 PM 38.3861 -74.6539 214° Southwest 400 460 33,900  Descending Washington Center
Sun 04:22:02 PM 38.2950 -74.7344 215° Southwest 395 455 34,000  Climbing Washington Center
Sun 04:23:02 PM 38.2225 -74.7961 214° Southwest 395 455 33,900  Descending Washington Center
Sun 04:24:02 PM 38.1250 -74.8817 215° Southwest 395 455 34,000  Climbing Washington Center
Sun 04:25:00 PM 38.0317 -74.9564 212° Southwest 395 455 33,900  Descending Washington Center
Sun 04:26:02 PM 37.9403 -75.0336 214° Southwest 395 455 34,000  Climbing Washington Center
Sun 04:27:00 PM 37.8508 -75.1106 214° Southwest 395 455 33,900 -50 Descending Washington Center
Sun 04:28:01 PM 37.7617 -75.1847 213° Southwest 395 455 33,900  Level Washington Center
Sun 04:29:01 PM 37.6722 -75.2614 214° Southwest 395 455 33,900 50 Level Washington Center
Sun 04:30:01 PM 37.5783 -75.3350 212° Southwest 395 455 34,000 50 Climbing Washington Center
Sun 04:31:02 PM 37.4911 -75.4086 214° Southwest 395 455 34,000 -50 Level Washington Center
Sun 04:32:00 PM 37.3992 -75.4819 212° Southwest 395 455 33,900  Descending Washington Center
Sun 04:33:00 PM 37.3117 -75.5528 213° Southwest 395 455 34,000  Climbing Washington Center
Sun 04:34:00 PM 37.2261 -75.6258 214° Southwest 390 449 33,900 -49 Descending Washington Center
Sun 04:35:02 PM 37.1386 -75.6933 212° Southwest 390 449 33,900  Level Washington Center
Sun 04:36:00 PM 37.0531 -75.7636 213° Southwest 385 443 33,900  Level Washington Center
Sun 04:37:00 PM 36.9631 -75.8336 212° Southwest 380 437 33,900 49 Level Washington Center
Sun 04:38:02 PM 36.8753 -75.9061 213° Southwest 385 443 34,000 50 Climbing Washington Center
Sun 04:39:00 PM 36.7875 -75.9758 212° Southwest 385 443 34,000 -50 Level Washington Center
Sun 04:40:02 PM 36.6892 -76.0581 214° Southwest 385 443 33,900  Descending Washington Center
Sun 04:41:02 PM 36.6033 -76.1275 213° Southwest 391 450 34,000 50 Climbing Washington Center
Sun 04:42:01 PM 36.5111 -76.2019 213° Southwest 391 450 34,000  Level Washington Center
Sun 04:43:00 PM 36.4211 -76.2733 213° Southwest 391 450 34,000  Level Washington Center
Sun 04:44:01 PM 36.3269 -76.3475 212° Southwest 391 450 34,000  Level Washington Center
Sun 04:45:01 PM 36.2386 -76.4186 213° Southwest 391 450 34,000 -51 Level Washington Center
Sun 04:45:59 PM 36.1486 -76.4897 213° Southwest 391 450 33,900 -50 Descending Washington Center
Sun 04:47:00 PM 36.0561 -76.5633 213° Southwest 391 450 33,900  Level Washington Center
Sun 04:48:01 PM 35.9658 -76.6314 211° Southwest 391 450 33,900 50 Level Washington Center
Sun 04:49:01 PM 35.8756 -76.7019 212° Southwest 391 450 34,000  Climbing Washington Center
Sun 04:50:01 PM 35.7850 -76.7697 211° Southwest 391 450 33,900  Descending Washington Center
Sun 04:51:02 PM 35.6989 -76.8375 213° Southwest 391 450 34,000 50 Climbing Washington Center
Sun 04:52:01 PM 35.6125 -76.9103 214° Southwest 385 443 34,000  Level Washington Center
Sun 04:53:01 PM 35.5178 -76.9828 212° Southwest 393 452 34,000  Level Washington Center
Sun 04:54:02 PM 35.4253 -77.0550 212° Southwest 398 458 34,000  Level Washington Center
Sun 04:55:00 PM 35.3325 -77.1272 212° Southwest 398 458 34,000  Level Washington Center
Sun 04:56:01 PM 35.2397 -77.1992 212° Southwest 398 458 34,000  Level Washington Center
Sun 04:57:02 PM 35.1328 -77.2453 199° South 398 458 34,000  Level Washington Center
Sun 04:57:59 PM 35.0236 -77.2889 198° South 403 464 34,000  Level Washington Center
Sun 04:59:00 PM 34.9144 -77.3297 197° South 415 478 34,000 -49 Level Washington Center
Sun 05:00:01 PM 34.8053 -77.3753 199° South 415 478 33,900 -49 Descending Washington Center
Sun 05:01:02 PM 34.6942 -77.4133 196° South 415 478 33,900  Level Washington Center
Sun 05:02:02 PM 34.5828 -77.4614 200° South 415 478 33,900 51 Level Washington Center
Sun 05:03:00 PM 34.4717 -77.5042 198° South 420 483 34,000 50 Climbing Washington Center
Sun 05:04:01 PM 34.3583 -77.5467 197° South 425 489 34,000 -50 Level Washington Center
Sun 05:05:00 PM 34.2469 -77.5867 197° South 425 489 33,900  Descending Washington Center
Sun 05:06:53 PM 34.0453 -77.6647 198° South 415 478 34,000 35 Climbing Jacksonville Center
Sun 05:07:53 PM 33.9303 -77.7117 199° South 415 478 34,000  Level Jacksonville Center
Sun 05:08:53 PM 33.8197 -77.7658 202° Southwest 426 490 34,000  Level Jacksonville Center
Sun 05:09:53 PM 33.7094 -77.8247 204° Southwest 426 490 34,000  Level Jacksonville Center
Sun 05:10:53 PM 33.5867 -77.8839 202° Southwest 432 497 34,000  Level Jacksonville Center
Sun 05:11:53 PM 33.4783 -77.9400 203° Southwest 432 497 34,000 -50 Level Jacksonville Center
Sun 05:12:53 PM 33.3678 -77.9933 202° Southwest 432 497 33,900 -50 Descending Jacksonville Center
Sun 05:13:53 PM 33.2553 -78.0517 203° Southwest 432 497 33,900 50 Level Jacksonville Center
Sun 05:14:53 PM 33.1447 -78.1072 203° Southwest 432 497 34,000 50 Climbing Jacksonville Center
Sun 05:15:53 PM 33.0339 -78.1603 202° Southwest 432 497 34,000 -50 Level Jacksonville Center
Sun 05:16:53 PM 32.9214 -78.2181 203° Southwest 437 503 33,900 -50 Descending Jacksonville Center
Sun 05:17:53 PM 32.8108 -78.2733 203° Southwest 437 503 33,900  Level Jacksonville Center
Sun 05:18:53 PM 32.7022 -78.3283 203° Southwest 432 497 33,900  Level Jacksonville Center
Sun 05:19:53 PM 32.5914 -78.3806 202° Southwest 432 497 33,900  Level Jacksonville Center
Sun 05:20:53 PM 32.4783 -78.4331 201° Southwest 432 497 33,900 50 Level Jacksonville Center
Sun 05:21:53 PM 32.3697 -78.4875 203° Southwest 432 497 34,000  Climbing Jacksonville Center
Sun 05:22:53 PM 32.2714 -78.5439 206° Southwest 432 497 33,900  Descending Jacksonville Center
Sun 05:23:53 PM 32.1564 -78.5983 202° Southwest 432 497 34,000 50 Climbing Jacksonville Center
Sun 05:24:53 PM 32.0436 -78.6553 203° Southwest 437 503 34,000  Level Jacksonville Center
Sun 05:25:53 PM 31.9283 -78.7094 202° Southwest 442 509 34,000  Level Jacksonville Center
Sun 05:26:53 PM 31.8175 -78.7633 202° Southwest 442 509 34,000 -50 Level Jacksonville Center
Sun 05:27:53 PM 31.7025 -78.8222 204° Southwest 447 514 33,900 -50 Descending Jacksonville Center
Sun 05:28:53 PM 31.5894 -78.8758 202° Southwest 447 514 33,900  Level Jacksonville Center
Sun 05:29:53 PM 31.4783 -78.9269 201° Southwest 447 514 33,900  Level Jacksonville Center
Sun 05:30:53 PM 31.3631 -78.9831 203° Southwest 447 514 33,900  Level Jacksonville Center
Sun 05:31:53 PM 31.2481 -79.0411 203° Southwest 447 514 33,900  Level Jacksonville Center
Sun 05:32:53 PM 31.1389 -79.0942 203° Southwest 447 514 33,900  Level Jacksonville Center
Sun 05:33:53 PM 31.0153 -79.1500 201° Southwest 447 514 33,900  Level Jacksonville Center
Sun 05:34:53 PM 30.9042 -79.2028 202° Southwest 447 514 33,900  Level Jacksonville Center
Sun 05:35:53 PM 30.7908 -79.2581 203° Southwest 447 514 33,900  Level Jacksonville Center
Sun 05:37:35 PM 30.6089 -79.3397 201° Southwest 438 504 33,900  Level Miami Center
Sun 05:38:35 PM 30.5036 -79.3925 203° Southwest 438 504 33,900  Level Miami Center
Sun 05:39:35 PM 30.3861 -79.4450 201° Southwest 444 511 33,900 50 Level Miami Center
Sun 05:40:35 PM 30.2725 -79.4975 202° Southwest 439 505 34,000  Climbing Miami Center
Sun 05:41:35 PM 30.1653 -79.5500 203° Southwest 439 505 33,900 -50 Descending Miami Center
Sun 05:42:36 PM 30.0433 -79.6044 201° Southwest 447 514 33,900  Level Miami Center
Sun 05:43:35 PM 29.9297 -79.6589 203° Southwest 447 514 33,900 -202 Level Miami Center
Sun 05:44:35 PM 29.8161 -79.7133 203° Southwest 447 514 33,500 -650 Descending Miami Center
Sun 05:45:35 PM 29.7003 -79.7700 203° Southwest 447 514 32,600 -950 Descending Miami Center
Sun 05:46:35 PM 29.5825 -79.8194 200° South 447 514 31,600 -1,000 Descending Miami Center
Sun 05:47:35 PM 29.4686 -79.8781 204° Southwest 447 514 30,600 -1,800 Descending Miami Center
Sun 05:49:35 PM 29.2283 -79.9881 202° Southwest 462 532 26,200 -2,233 Descending Miami Center
Sun 05:50:35 PM 29.1106 -80.0417 202° Southwest 462 532 23,900 -2,350 Descending Miami Center
Sun 05:51:35 PM 28.9989 -80.0906 201° Southwest 445 512 21,500 -2,350 Descending Miami Center
Sun 05:52:35 PM 28.9094 -80.1639 216° Southwest 430 495 19,200 -2,300 Descending Miami Center
Sun 05:53:35 PM 28.8733 -80.2792 250° West 380 437 16,900 -1,793 Descending Miami Center
Sun 05:55:29 PM 28.8167 -80.5000 254° West 365 420 14,000 -1,310 Descending Orlando TRACON
Sun 05:56:29 PM 28.8000 -80.6167 261° West 366 421 13,100 -1,701 Descending Orlando TRACON
Sun 05:57:36 PM 28.7833 -80.7500 262° West 352 405 10,400 -1,398 Descending Orlando TRACON
Sun 05:58:42 PM 28.7667 -80.8500 259° West 291 335 10,000 -333 Descending Orlando TRACON
Sun 05:59:42 PM 28.7667 -80.9333 270° West 287 330 9,700 -1,095 Descending Orlando TRACON
Sun 06:00:48 PM 28.7667 -81.0333 270° West 268 308 7,700 -1,571 Descending Orlando TRACON
Sun 06:01:48 PM 28.7333 -81.1000 240° Southwest 231 266 6,400 -1,190 Descending Orlando TRACON
Sun 06:02:49 PM 28.7167 -81.1667 254° West 226 260 5,300 -1,266 Descending Orlando TRACON
Sun 06:03:37 PM 28.6833 -81.2167 233° Southwest 224 258 4,100 -1,211 Descending Orlando TRACON
Sun 06:04:43 PM 28.6500 -81.2833 240° Southwest 222 255 3,000 -857 Descending Orlando TRACON
Sun 06:05:43 PM 28.5833 -81.2833 180° South 222 255 2,300 -619 Descending Orlando TRACON
Sun 06:06:49 PM 28.5167 -81.2833 180° South 174 200 1,700 -678 Descending Orlando TRACON
Sun 06:07:38 PM 28.4833 -81.2833 180° South 150 173 1,000 -857 Descending Orlando TRACON
Sun 06:09:00 PM 28.4294 -81.3090 336° Northwest  Level Estimated

Login

Don't have an account? Register now (free) for customized features, flight alerts, and more!